Time;durP1;ratioP1;P1;durP2;ratioP2;P2;SDS_P1;SDS_P2;PMS_P1;PMS_P2;Temp;Humidity;BMP_temperature;BMP_pressure;BME280_temperature;BME280_humidity;BME280_pressure;Samples;Min_cycle;Max_cycle;Signal;HPM_P1;HPM_P2
2023/06/29 00:00:41;;;;;;;2.90;1.65;;;22.90;64.90;;;;;;5013504;28;20370;-71
2023/06/29 00:03:07;;;;;;;2.38;1.60;;;22.90;65.50;;;;;;5013540;28;20530;-72
2023/06/29 00:05:33;;;;;;;4.10;1.70;;;22.80;64.70;;;;;;5013073;28;20018;-71
2023/06/29 00:07:59;;;;;;;3.72;1.60;;;22.80;64.50;;;;;;5013017;28;20030;-72
2023/06/29 00:10:25;;;;;;;2.08;1.60;;;22.80;64.30;;;;;;5012982;28;20038;-72
2023/06/29 00:12:52;;;;;;;2.50;1.38;;;22.80;64.10;;;;;;5013145;28;20097;-72
2023/06/29 00:15:17;;;;;;;3.33;1.45;;;22.80;63.80;;;;;;5013151;28;20106;-72
2023/06/29 00:17:47;;;;;;;2.20;1.50;;;22.70;63.70;;;;;;5014007;28;20113;-72
2023/06/29 00:20:13;;;;;;;2.13;1.15;;;22.70;63.30;;;;;;5016950;28;20381;-71
2023/06/29 00:22:40;;;;;;;2.28;1.40;;;22.70;63.20;;;;;;5017162;28;20030;-71
2023/06/29 00:25:10;;;;;;;3.50;1.65;;;22.70;62.90;;;;;;5017000;28;20022;-71
2023/06/29 00:27:36;;;;;;;2.10;1.40;;;22.60;62.80;;;;;;5017250;28;20410;-71
2023/06/29 00:30:02;;;;;;;2.10;1.60;;;22.60;62.80;;;;;;5016977;28;20401;-71
2023/06/29 00:32:28;;;;;;;2.50;1.45;;;22.60;62.80;;;;;;5016760;28;20026;-71
2023/06/29 00:34:53;;;;;;;4.22;1.60;;;22.60;62.90;;;;;;5016835;28;20049;-72
2023/06/29 00:37:19;;;;;;;3.70;1.80;;;22.60;63.20;;;;;;5034567;28;20045;-71
2023/06/29 00:39:45;;;;;;;2.50;1.58;;;22.60;63.40;;;;;;5036710;28;20021;-72
2023/06/29 00:42:11;;;;;;;3.47;1.40;;;22.50;63.50;;;;;;5036680;28;20496;-73
2023/06/29 00:44:36;;;;;;;3.15;1.40;;;22.50;63.60;;;;;;5036247;28;20108;-72
2023/06/29 00:47:03;;;;;;;2.70;1.40;;;22.50;63.30;;;;;;5036135;28;20044;-72
2023/06/29 00:49:29;;;;;;;1.75;1.40;;;22.50;62.80;;;;;;5036350;28;20033;-72
2023/06/29 00:51:55;;;;;;;3.08;1.30;;;22.50;62.50;;;;;;5036074;28;20037;-73
2023/06/29 00:54:21;;;;;;;2.33;1.30;;;22.50;62.30;;;;;;5036266;28;20025;-71
2023/06/29 00:56:48;;;;;;;2.35;1.38;;;22.50;62.30;;;;;;5036157;28;20025;-71
2023/06/29 00:59:13;;;;;;;1.63;1.13;;;22.40;62.20;;;;;;5033175;28;20385;-72
2023/06/29 01:01:41;;;;;;;6.05;1.30;;;22.40;61.90;;;;;;5033233;28;20037;-71
2023/06/29 01:04:17;;;;;;;2.00;1.38;;;22.40;61.80;;;;;;5033891;28;20029;-71
2023/06/29 01:06:54;;;;;;;3.42;1.30;;;22.40;61.80;;;;;;5035949;28;20034;-71
2023/06/29 01:09:20;;;;;;;2.00;1.52;;;22.40;61.90;;;;;;5017934;28;20389;-72
2023/06/29 01:11:49;;;;;;;2.05;1.20;;;22.30;61.40;;;;;;5035152;28;20065;-71
2023/06/29 01:14:17;;;;;;;2.90;1.23;;;22.30;61.20;;;;;;5035580;28;20477;-71
2023/06/29 01:16:43;;;;;;;1.45;1.30;;;22.30;61.50;;;;;;5035387;28;20029;-71
2023/06/29 01:19:14;;;;;;;2.28;1.40;;;22.30;61.00;;;;;;5035487;28;20017;-72
2023/06/29 01:21:48;;;;;;;5.10;1.60;;;22.30;61.10;;;;;;5035339;28;20032;-73
2023/06/29 01:24:14;;;;;;;2.13;1.20;;;22.30;61.30;;;;;;5035174;28;20026;-71
2023/06/29 01:26:41;;;;;;;2.45;1.45;;;22.30;61.40;;;;;;5035141;28;20478;-71
2023/06/29 01:29:07;;;;;;;1.65;1.10;;;22.30;61.60;;;;;;5034865;28;20503;-71
2023/06/29 01:31:32;;;;;;;4.47;1.40;;;22.40;62.00;;;;;;5035471;28;20033;-71
2023/06/29 01:33:59;;;;;;;5.15;1.60;;;22.40;62.00;;;;;;5035535;28;20155;-71
2023/06/29 01:36:27;;;;;;;3.50;1.33;;;22.30;61.90;;;;;;5034891;28;20072;-72
2023/06/29 01:39:06;;;;;;;2.20;1.33;;;22.40;62.20;;;;;;5035248;28;20036;-71
2023/06/29 01:41:38;;;;;;;3.33;1.42;;;22.30;62.40;;;;;;5035007;28;20029;-71
2023/06/29 01:44:06;;;;;;;2.58;1.52;;;22.30;62.80;;;;;;5035295;28;20424;-71
2023/06/29 01:46:33;;;;;;;4.82;1.50;;;22.40;62.80;;;;;;5035398;28;20061;-71
2023/06/29 01:49:00;;;;;;;4.50;1.30;;;22.30;63.20;;;;;;5035316;28;20033;-71
2023/06/29 01:51:25;;;;;;;2.78;1.60;;;22.30;63.80;;;;;;5035375;28;20036;-71
2023/06/29 01:53:52;;;;;;;3.85;1.50;;;22.20;64.40;;;;;;5035221;28;20029;-70
2023/06/29 01:56:18;;;;;;;2.20;1.45;;;22.10;64.90;;;;;;5035111;28;20543;-71
2023/06/29 01:58:44;;;;;;;7.93;1.58;;;22.10;65.00;;;;;;5035134;28;20053;-71
2023/06/29 02:01:10;;;;;;;4.45;1.70;;;22.00;65.00;;;;;;5034978;28;20025;-70
2023/06/29 02:03:35;;;;;;;2.58;1.77;;;22.00;65.20;;;;;;5034849;28;20097;-72
2023/06/29 02:06:01;;;;;;;5.88;1.60;;;21.90;65.00;;;;;;5035000;28;20105;-72
2023/06/29 02:08:27;;;;;;;2.88;1.50;;;21.90;65.40;;;;;;5034758;28;20052;-71
2023/06/29 02:10:53;;;;;;;4.05;1.50;;;21.90;65.40;;;;;;5034930;28;20033;-71
2023/06/29 02:13:19;;;;;;;2.85;1.80;;;21.80;65.70;;;;;;5034796;28;20071;-71
2023/06/29 02:15:44;;;;;;;3.92;1.70;;;21.80;65.70;;;;;;5034670;28;20120;-71
2023/06/29 02:18:10;;;;;;;7.40;1.75;;;21.80;65.80;;;;;;5017096;28;20053;-71
2023/06/29 02:20:36;;;;;;;9.75;2.08;;;21.80;65.90;;;;;;5034812;28;20030;-71
2023/06/29 02:23:02;;;;;;;6.25;1.60;;;21.70;66.10;;;;;;5034407;28;20128;-71
2023/06/29 02:25:27;;;;;;;1.90;1.38;;;21.70;66.20;;;;;;5016999;28;20121;-71
2023/06/29 02:27:53;;;;;;;2.67;1.20;;;21.70;66.50;;;;;;5017059;28;20053;-71
2023/06/29 02:30:19;;;;;;;1.65;1.20;;;21.70;66.60;;;;;;5034270;28;20034;-71
2023/06/29 02:32:44;;;;;;;3.13;1.50;;;21.70;67.20;;;;;;5034365;28;20040;-71
2023/06/29 02:35:10;;;;;;;3.45;1.30;;;21.70;66.50;;;;;;5034312;28;20022;-71
2023/06/29 02:37:36;;;;;;;2.65;1.30;;;21.80;66.70;;;;;;5034211;28;20421;-72
2023/06/29 02:40:02;;;;;;;2.13;1.40;;;21.80;66.90;;;;;;5033691;28;20036;-71
2023/06/29 02:42:28;;;;;;;3.92;1.77;;;21.80;67.00;;;;;;5034264;28;20163;-71
2023/06/29 02:44:53;;;;;;;2.97;2.00;;;21.80;67.10;;;;;;5034085;28;20033;-71
2023/06/29 02:47:19;;;;;;;3.10;1.65;;;21.80;67.20;;;;;;5034345;28;20101;-71
2023/06/29 02:49:44;;;;;;;3.75;1.27;;;21.70;66.90;;;;;;5034161;28;20462;-71
2023/06/29 02:52:10;;;;;;;5.50;1.20;;;21.80;66.60;;;;;;5034250;28;20032;-72
2023/06/29 02:54:36;;;;;;;2.65;1.38;;;21.70;66.50;;;;;;5034229;28;20044;-72
2023/06/29 02:57:02;;;;;;;1.90;1.30;;;21.70;66.20;;;;;;5015878;28;20429;-72
2023/06/29 02:59:28;;;;;;;2.45;1.35;;;21.80;66.10;;;;;;5034058;28;20048;-73
2023/06/29 03:01:53;;;;;;;4.43;1.35;;;21.80;66.00;;;;;;5034261;28;20087;-72
2023/06/29 03:04:19;;;;;;;6.55;1.30;;;21.80;66.00;;;;;;5033954;28;20453;-76
2023/06/29 03:06:45;;;;;;;2.80;1.33;;;21.80;66.40;;;;;;5033571;28;20032;-71
2023/06/29 03:09:11;;;;;;;2.17;1.23;;;21.80;66.20;;;;;;5033657;28;20045;-73
2023/06/29 03:11:36;;;;;;;2.30;1.20;;;21.80;66.10;;;;;;5033565;28;20038;-75
2023/06/29 03:14:02;;;;;;;2.22;1.33;;;21.90;66.20;;;;;;5033803;28;20025;-72
2023/06/29 03:16:28;;;;;;;5.85;1.50;;;21.80;66.00;;;;;;5033949;28;20025;-76
2023/06/29 03:18:54;;;;;;;2.47;1.48;;;21.80;65.90;;;;;;5033539;28;20041;-72
2023/06/29 03:21:19;;;;;;;3.35;1.50;;;21.90;66.00;;;;;;5033213;28;20132;-71
2023/06/29 03:23:46;;;;;;;3.85;1.20;;;21.80;65.80;;;;;;5033589;28;20705;-73
2023/06/29 03:26:12;;;;;;;4.95;1.25;;;21.80;65.70;;;;;;5033916;28;20458;-71
2023/06/29 03:28:38;;;;;;;3.63;1.30;;;21.80;65.80;;;;;;5033483;28;20025;-72
2023/06/29 03:31:04;;;;;;;2.33;1.30;;;21.90;65.90;;;;;;5033284;28;20371;-72
2023/06/29 03:33:29;;;;;;;2.63;1.60;;;21.80;66.00;;;;;;5033371;28;20017;-73
2023/06/29 03:35:55;;;;;;;3.92;1.70;;;21.80;66.10;;;;;;5033175;28;20144;-72
2023/06/29 03:38:21;;;;;;;5.90;1.75;;;21.80;66.20;;;;;;5033387;28;20017;-72
2023/06/29 03:40:47;;;;;;;7.80;1.58;;;21.80;66.40;;;;;;5033508;28;20022;-71
2023/06/29 03:43:12;;;;;;;2.95;1.75;;;21.80;66.40;;;;;;5033030;28;20028;-72
2023/06/29 03:45:38;;;;;;;3.20;1.50;;;21.80;66.50;;;;;;5033325;28;20550;-72
2023/06/29 03:48:04;;;;;;;5.88;1.65;;;21.80;66.70;;;;;;5033213;28;20021;-72
2023/06/29 03:50:30;;;;;;;3.63;1.60;;;21.80;66.70;;;;;;5032603;28;20041;-72
2023/06/29 03:52:56;;;;;;;3.03;1.70;;;21.70;66.40;;;;;;5015281;28;20041;-72
2023/06/29 03:55:24;;;;;;;5.45;2.03;;;21.70;65.90;;;;;;5033044;28;20029;-73
2023/06/29 03:57:50;;;;;;;3.40;1.83;;;21.70;66.00;;;;;;5032963;28;20484;-71
2023/06/29 04:00:16;;;;;;;7.00;1.52;;;21.60;66.20;;;;;;5032903;28;20033;-74
2023/06/29 04:02:42;;;;;;;3.58;1.83;;;21.50;66.30;;;;;;5015097;28;20048;-73
2023/06/29 04:05:09;;;;;;;2.78;1.30;;;21.50;66.60;;;;;;5033051;28;20029;-73
2023/06/29 04:07:35;;;;;;;4.35;1.63;;;21.50;66.90;;;;;;5032627;28;20021;-71
2023/06/29 04:10:01;;;;;;;3.10;1.80;;;21.50;67.20;;;;;;5032871;28;20097;-72
2023/06/29 04:12:27;;;;;;;6.05;1.60;;;21.50;67.30;;;;;;5032892;28;20030;-75
2023/06/29 04:14:53;;;;;;;4.78;1.30;;;21.40;67.30;;;;;;5031515;28;20116;-78
2023/06/29 04:17:18;;;;;;;5.15;1.50;;;21.50;67.70;;;;;;5030584;28;20036;-74
2023/06/29 04:19:44;;;;;;;5.70;1.80;;;21.50;67.70;;;;;;5030885;28;20017;-72
2023/06/29 04:22:10;;;;;;;2.83;1.40;;;21.50;67.60;;;;;;5014181;28;20079;-73
2023/06/29 04:24:35;;;;;;;2.35;1.38;;;21.50;67.50;;;;;;5032399;28;20056;-73
2023/06/29 04:27:01;;;;;;;3.00;1.75;;;21.50;67.70;;;;;;5032446;28;20033;-73
2023/06/29 04:29:27;;;;;;;2.55;1.33;;;21.50;67.80;;;;;;5031382;28;20044;-71
2023/06/29 04:31:54;;;;;;;5.28;1.75;;;21.60;68.00;;;;;;5031027;28;20037;-71
2023/06/29 04:34:21;;;;;;;3.58;1.30;;;21.60;68.40;;;;;;5014929;28;20022;-71
2023/06/29 04:36:47;;;;;;;5.55;1.65;;;21.60;68.40;;;;;;5032437;28;20049;-71
2023/06/29 04:39:13;;;;;;;4.82;1.40;;;21.60;68.40;;;;;;5032536;28;20031;-70
2023/06/29 04:41:41;;;;;;;2.25;1.15;;;21.60;68.50;;;;;;5032776;28;20084;-70
2023/06/29 04:44:10;;;;;;;3.95;1.25;;;21.60;68.60;;;;;;5032767;28;20022;-70
2023/06/29 04:46:40;;;;;;;2.33;1.52;;;21.60;68.40;;;;;;5032512;28;20054;-69
2023/06/29 04:49:07;;;;;;;2.75;1.48;;;21.60;68.30;;;;;;5032575;28;20524;-69
2023/06/29 04:51:37;;;;;;;9.23;2.30;;;21.60;69.00;;;;;;5032391;28;20039;-71
2023/06/29 04:54:05;;;;;;;4.68;2.05;;;21.60;69.00;;;;;;5032390;28;20109;-71
2023/06/29 04:56:31;;;;;;;6.28;2.83;;;21.60;68.90;;;;;;5032358;28;20025;-72
2023/06/29 04:58:58;;;;;;;5.82;2.10;;;21.70;70.30;;;;;;5032192;28;20025;-72
2023/06/29 05:01:24;;;;;;;6.55;2.35;;;21.70;70.80;;;;;;5032194;28;20021;-71
2023/06/29 05:03:50;;;;;;;6.38;2.05;;;21.70;70.60;;;;;;5033265;28;20079;-72
2023/06/29 05:06:15;;;;;;;5.75;2.00;;;21.80;70.30;;;;;;5035795;28;20091;-71
2023/06/29 05:08:41;;;;;;;3.22;1.70;;;21.70;70.00;;;;;;5036021;28;20041;-71
2023/06/29 05:11:07;;;;;;;5.03;1.48;;;21.70;69.60;;;;;;5035752;28;20029;-72
2023/06/29 05:13:35;;;;;;;3.63;1.50;;;21.70;69.40;;;;;;5035464;28;20030;-71
2023/06/29 05:16:03;;;;;;;1.75;1.30;;;21.70;69.20;;;;;;5035378;28;20413;-72
2023/06/29 05:18:29;;;;;;;4.13;1.30;;;21.70;69.40;;;;;;5035677;28;20087;-72
2023/06/29 05:20:55;;;;;;;4.22;1.63;;;21.70;69.70;;;;;;5034956;28;20025;-72
2023/06/29 05:23:20;;;;;;;6.10;1.38;;;21.70;69.90;;;;;;5035158;28;20013;-72
2023/06/29 05:25:46;;;;;;;7.45;1.60;;;21.70;69.70;;;;;;5035185;28;20035;-72
2023/06/29 05:28:12;;;;;;;4.82;1.50;;;21.70;69.20;;;;;;5035309;28;20080;-71
2023/06/29 05:30:38;;;;;;;4.82;1.50;;;21.70;69.30;;;;;;5034776;28;20040;-71
2023/06/29 05:33:04;;;;;;;3.47;1.63;;;21.70;69.20;;;;;;5035056;28;20079;-77
2023/06/29 05:35:31;;;;;;;5.65;2.20;;;21.70;69.30;;;;;;5035385;28;20501;-77
2023/06/29 05:37:58;;;;;;;9.45;1.73;;;21.70;69.60;;;;;;5035402;28;20020;-78
2023/06/29 05:40:23;;;;;;;5.45;1.65;;;21.80;69.60;;;;;;5035091;28;20064;-76
2023/06/29 05:42:49;;;;;;;2.53;1.63;;;21.80;69.30;;;;;;5034737;28;20052;-75
2023/06/29 05:45:15;;;;;;;5.35;1.70;;;21.80;69.00;;;;;;5034875;28;20478;-75
2023/06/29 05:47:41;;;;;;;5.25;1.67;;;21.90;68.90;;;;;;5032461;28;20096;-76
2023/06/29 05:50:07;;;;;;;8.45;1.50;;;21.80;68.60;;;;;;5034082;28;20036;-73
2023/06/29 05:52:37;;;;;;;4.40;1.40;;;21.90;68.50;;;;;;5033507;28;20036;-75
2023/06/29 05:55:03;;;;;;;3.22;1.83;;;21.90;68.60;;;;;;5034350;28;20017;-76
2023/06/29 05:57:29;;;;;;;11.13;1.50;;;21.90;68.40;;;;;;5033782;28;20112;-75
2023/06/29 05:59:55;;;;;;;2.80;1.73;;;21.90;68.70;;;;;;5033467;28;20097;-74
2023/06/29 06:02:21;;;;;;;6.32;1.90;;;21.90;68.80;;;;;;5032901;28;20021;-76
2023/06/29 06:04:47;;;;;;;5.70;2.25;;;21.90;68.70;;;;;;5034376;28;20075;-76
2023/06/29 06:07:27;;;;;;;15.27;1.88;;;22.00;68.70;;;;;;5033842;28;20033;-75
2023/06/29 06:09:53;;;;;;;12.75;2.03;;;22.00;68.50;;;;;;5033689;28;20021;-76
2023/06/29 06:12:19;;;;;;;15.95;3.00;;;22.00;68.40;;;;;;5034094;28;20033;-76
2023/06/29 06:14:45;;;;;;;27.02;3.67;;;22.10;68.60;;;;;;5033666;28;20024;-76
2023/06/29 06:17:10;;;;;;;14.70;2.80;;;22.10;68.30;;;;;;5033633;28;20528;-77
2023/06/29 06:19:36;;;;;;;25.48;4.20;;;22.10;67.50;;;;;;5034008;28;20025;-70
2023/06/29 06:22:02;;;;;;;25.08;3.90;;;22.10;67.80;;;;;;5034140;28;20099;-69
2023/06/29 06:24:28;;;;;;;31.92;3.38;;;22.10;67.80;;;;;;5033818;28;20025;-72
2023/06/29 06:26:53;;;;;;;21.70;3.10;;;22.10;67.30;;;;;;5033604;28;20044;-70
2023/06/29 06:29:19;;;;;;;27.30;3.45;;;22.20;67.20;;;;;;5033964;28;20033;-68
2023/06/29 06:31:45;;;;;;;23.25;3.10;;;22.20;67.30;;;;;;5016183;28;20042;-75
2023/06/29 06:34:11;;;;;;;18.27;3.08;;;22.20;66.60;;;;;;5033455;28;20026;-68
2023/06/29 06:36:37;;;;;;;8.90;1.73;;;22.30;65.40;;;;;;5033371;28;20060;-78
2023/06/29 06:39:03;;;;;;;11.73;3.05;;;22.30;64.20;;;;;;5033525;28;20409;-73
2023/06/29 06:41:29;;;;;;;9.73;2.20;;;22.40;64.10;;;;;;5033706;28;20033;-82
2023/06/29 06:43:55;;;;;;;21.45;2.40;;;22.40;64.00;;;;;;5016130;28;20068;-74
2023/06/29 06:46:20;;;;;;;8.75;2.08;;;22.40;63.90;;;;;;5033566;28;20430;-81
2023/06/29 06:48:48;;;;;;;10.00;1.92;;;22.50;64.40;;;;;;5033861;28;20021;-82
2023/06/29 06:51:13;;;;;;;6.38;1.70;;;22.50;64.30;;;;;;5033241;28;20072;-72
2023/06/29 06:53:39;;;;;;;3.80;1.45;;;22.60;64.30;;;;;;5034982;28;20021;-78
2023/06/29 06:56:05;;;;;;;6.05;1.50;;;22.70;63.70;;;;;;5035063;28;20026;-69
2023/06/29 06:58:31;;;;;;;3.72;1.50;;;22.70;63.60;;;;;;5035510;28;20079;-78
2023/06/29 07:00:57;;;;;;;3.42;1.75;;;22.70;63.50;;;;;;5033017;28;20033;-80
2023/06/29 07:03:24;;;;;;;2.50;1.73;;;22.80;63.70;;;;;;5034139;28;20405;-75
2023/06/29 07:05:50;;;;;;;3.92;1.40;;;22.80;63.90;;;;;;5017692;28;20025;-76
2023/06/29 07:08:15;;;;;;;5.18;1.50;;;22.90;64.10;;;;;;5032667;28;20026;-70
2023/06/29 07:10:41;;;;;;;4.40;1.42;;;22.90;63.90;;;;;;5032777;28;20134;-69
2023/06/29 07:13:07;;;;;;;5.05;1.70;;;22.90;63.30;;;;;;5034500;28;20109;-77
2023/06/29 07:15:34;;;;;;;5.93;1.45;;;23.00;62.30;;;;;;5041952;28;20049;-72
2023/06/29 07:18:00;;;;;;;4.65;1.55;;;23.00;62.00;;;;;;5044118;28;20101;-71
2023/06/29 07:20:25;;;;;;;4.03;1.50;;;23.00;61.40;;;;;;5052591;28;20005;-70
2023/06/29 07:22:51;;;;;;;4.03;1.88;;;23.10;61.40;;;;;;5056573;28;20026;-74
2023/06/29 07:25:17;;;;;;;5.85;1.80;;;23.10;61.70;;;;;;5035120;28;20017;-74
2023/06/29 07:27:42;;;;;;;5.63;1.60;;;23.10;62.20;;;;;;5032778;28;20037;-72
2023/06/29 07:30:08;;;;;;;4.65;1.42;;;23.20;61.70;;;;;;5033178;28;20033;-74
2023/06/29 07:32:34;;;;;;;6.63;1.58;;;23.20;61.00;;;;;;5033406;28;20104;-75
2023/06/29 07:37:28;;;;;;;8.10;1.85;;;23.30;60.80;;;;;;5080342;22;20499;-69
2023/06/29 07:39:54;;;;;;;3.25;1.63;;;23.30;60.60;;;;;;5071744;28;20086;-69
2023/06/29 07:42:19;;;;;;;7.28;1.50;;;23.30;60.20;;;;;;5073173;28;20036;-74
2023/06/29 07:44:45;;;;;;;7.53;1.63;;;23.30;61.10;;;;;;5072538;28;20032;-72
2023/06/29 07:47:11;;;;;;;4.65;1.90;;;23.40;61.90;;;;;;5072202;28;20442;-75
2023/06/29 07:49:37;;;;;;;10.18;1.77;;;23.50;63.00;;;;;;5072133;28;20023;-75
2023/06/29 07:52:04;;;;;;;5.05;1.75;;;23.60;63.40;;;;;;5072451;28;20387;-73
2023/06/29 07:54:30;;;;;;;5.20;1.70;;;23.70;63.80;;;;;;5072696;28;20120;-74
2023/06/29 07:56:55;;;;;;;5.00;1.60;;;23.70;64.00;;;;;;5073173;28;20052;-75
2023/06/29 07:59:22;;;;;;;4.25;1.35;;;23.80;62.80;;;;;;5072844;28;20028;-75
2023/06/29 08:01:48;;;;;;;2.95;1.35;;;23.90;62.70;;;;;;5072451;28;20024;-75
2023/06/29 08:04:14;;;;;;;2.78;1.17;;;23.90;62.60;;;;;;5072351;28;20041;-73
2023/06/29 08:06:43;;;;;;;2.08;1.33;;;24.00;62.30;;;;;;5072481;28;20077;-75
2023/06/29 08:09:13;;;;;;;6.00;1.48;;;24.00;62.00;;;;;;5072710;28;20432;-75
2023/06/29 08:11:39;;;;;;;3.40;1.70;;;24.00;62.60;;;;;;5072979;28;20033;-68
2023/06/29 08:14:05;;;;;;;2.95;1.60;;;24.00;63.10;;;;;;5072780;28;20122;-75
2023/06/29 08:16:31;;;;;;;1.98;1.30;;;24.10;62.70;;;;;;5072428;28;20024;-75
2023/06/29 08:18:58;;;;;;;3.97;1.20;;;24.10;62.90;;;;;;5072621;28;20025;-75
2023/06/29 08:21:24;;;;;;;4.75;1.20;;;24.10;63.40;;;;;;5072153;28;20484;-73
2023/06/29 08:23:50;;;;;;;3.63;1.30;;;24.20;62.80;;;;;;5072522;28;20031;-75
2023/06/29 08:26:17;;;;;;;1.40;1.15;;;24.20;62.50;;;;;;5072135;28;20443;-75
2023/06/29 08:28:43;;;;;;;8.15;1.50;;;24.30;62.50;;;;;;5072271;28;20025;-75
2023/06/29 08:31:09;;;;;;;2.25;1.38;;;24.30;62.50;;;;;;5071019;28;20033;-75
2023/06/29 08:33:35;;;;;;;2.33;1.55;;;24.30;61.60;;;;;;5071445;28;20032;-74
2023/06/29 08:36:01;;;;;;;4.05;1.55;;;24.40;60.70;;;;;;5070454;28;20144;-74
2023/06/29 08:38:26;;;;;;;3.83;1.60;;;24.40;60.20;;;;;;5071999;28;20025;-75
2023/06/29 08:40:53;;;;;;;3.85;1.60;;;24.50;59.40;;;;;;5075414;28;20020;-76
2023/06/29 08:43:19;;;;;;;2.03;1.42;;;24.50;59.20;;;;;;5075203;28;20052;-75
2023/06/29 09:15:41;;;;;;;3.03;1.33;;;25.20;59.90;;;;;;5533824;22;20051;-77
2023/06/29 09:18:08;;;;;;;3.65;1.63;;;25.30;58.90;;;;;;5072606;28;20040;-78
2023/06/29 09:20:34;;;;;;;3.08;1.50;;;25.30;59.30;;;;;;5073114;28;20502;-77
2023/06/29 09:23:04;;;;;;;3.13;1.60;;;25.40;58.70;;;;;;5075935;28;20016;-77
2023/06/29 09:25:32;;;;;;;3.22;1.95;;;25.40;59.10;;;;;;5076142;28;20441;-79
2023/06/29 09:28:05;;;;;;;9.90;1.85;;;25.50;59.10;;;;;;5075225;28;20464;-78
2023/06/29 09:30:37;;;;;;;3.85;1.83;;;25.60;59.30;;;;;;5075402;28;20024;-75
2023/06/29 09:33:07;;;;;;;2.42;1.65;;;25.60;57.80;;;;;;5075753;28;20025;-78
2023/06/29 09:35:34;;;;;;;5.05;1.60;;;25.70;57.90;;;;;;5075284;28;20028;-77
2023/06/29 09:38:01;;;;;;;4.75;1.55;;;25.70;57.30;;;;;;5075395;28;20024;-78
2023/06/29 09:40:28;;;;;;;3.08;1.70;;;25.70;56.90;;;;;;5075409;28;20028;-77
2023/06/29 09:42:53;;;;;;;5.05;1.30;;;25.70;57.00;;;;;;5075298;28;20078;-78
2023/06/29 09:45:19;;;;;;;1.80;1.30;;;25.70;57.20;;;;;;5075285;28;20394;-77
2023/06/29 09:47:51;;;;;;;2.42;1.20;;;25.70;55.60;;;;;;5075302;28;20025;-76
2023/06/29 09:50:22;;;;;;;3.05;1.20;;;25.70;56.20;;;;;;5074839;28;20025;-77
2023/06/29 09:52:50;;;;;;;2.67;1.50;;;25.70;57.20;;;;;;5075321;28;20035;-77
2023/06/29 09:55:17;;;;;;;4.72;1.42;;;25.70;57.40;;;;;;5075093;28;20048;-77
2023/06/29 09:57:45;;;;;;;2.13;1.40;;;25.80;57.80;;;;;;5074953;28;20036;-77
2023/06/29 10:00:13;;;;;;;4.50;1.17;;;25.80;57.00;;;;;;5074941;28;20021;-77
2023/06/29 10:02:42;;;;;;;2.85;1.40;;;25.90;56.40;;;;;;5074999;28;20059;-77
2023/06/29 10:05:09;;;;;;;2.10;1.30;;;25.90;56.20;;;;;;5074883;28;20020;-76
2023/06/29 10:07:40;;;;;;;3.05;1.30;;;25.90;55.70;;;;;;5074273;28;20056;-78
2023/06/29 10:10:10;;;;;;;2.53;1.35;;;26.00;55.60;;;;;;5074822;28;20502;-77
2023/06/29 10:12:36;;;;;;;2.13;1.37;;;26.00;56.30;;;;;;5074843;28;20063;-73
2023/06/29 10:15:09;;;;;;;3.42;1.92;;;26.00;56.60;;;;;;5072760;28;20052;-75
2023/06/29 10:17:53;;;;;;;1.80;1.45;;;26.10;55.50;;;;;;5072012;28;20046;-75
2023/06/29 10:20:21;;;;;;;3.58;1.50;;;26.20;55.00;;;;;;5073657;28;20391;-76
2023/06/29 10:22:48;;;;;;;4.00;1.33;;;26.30;54.90;;;;;;5074568;28;20032;-76
2023/06/29 10:25:19;;;;;;;2.33;1.45;;;26.30;54.70;;;;;;5074521;28;20032;-76
2023/06/29 10:27:46;;;;;;;2.17;1.30;;;26.40;54.80;;;;;;5074553;28;20040;-77
2023/06/29 10:30:21;;;;;;;3.80;1.88;;;26.50;55.10;;;;;;5074562;28;20480;-76
2023/06/29 10:32:50;;;;;;;2.35;1.40;;;26.50;53.40;;;;;;5074511;28;20025;-75
2023/06/29 10:35:17;;;;;;;4.35;1.50;;;26.60;54.10;;;;;;5074193;28;20361;-76
2023/06/29 10:37:48;;;;;;;2.03;1.17;;;26.60;53.90;;;;;;5074445;28;20029;-76
2023/06/29 10:40:25;;;;;;;2.95;1.40;;;26.70;54.40;;;;;;5074137;28;20372;-76
2023/06/29 10:42:55;;;;;;;2.63;1.40;;;26.70;54.40;;;;;;5072990;28;20052;-76
2023/06/29 10:45:21;;;;;;;2.95;1.73;;;26.80;55.10;;;;;;5074469;28;20021;-76
2023/06/29 10:47:56;;;;;;;2.28;1.50;;;26.80;54.90;;;;;;5074205;28;20043;-76
2023/06/29 10:50:46;;;;;;;3.83;1.50;;;26.90;54.80;;;;;;5073835;28;20052;-77
2023/06/29 10:53:14;;;;;;;5.28;1.38;;;27.00;53.90;;;;;;5073838;28;20063;-77
2023/06/29 10:55:44;;;;;;;4.75;1.38;;;27.00;53.70;;;;;;5073922;28;20537;-77
2023/06/29 10:58:13;;;;;;;2.63;1.50;;;27.10;52.20;;;;;;5073790;28;20024;-73
2023/06/29 11:00:39;;;;;;;7.38;1.42;;;27.10;53.10;;;;;;5073539;28;20458;-73
2023/06/29 11:03:05;;;;;;;1.77;1.10;;;27.10;53.00;;;;;;5073366;28;20017;-74
2023/06/29 11:05:33;;;;;;;1.98;1.42;;;27.10;52.60;;;;;;5073717;28;20038;-73
2023/06/29 11:07:59;;;;;;;2.58;1.25;;;27.20;52.70;;;;;;5073413;28;20028;-74
2023/06/29 11:10:25;;;;;;;1.60;1.40;;;27.20;52.80;;;;;;5073410;28;20028;-73
2023/06/29 11:12:55;;;;;;;7.53;1.10;;;27.30;51.60;;;;;;5073611;28;20029;-73
2023/06/29 11:15:22;;;;;;;4.72;1.50;;;27.30;50.60;;;;;;5073466;28;20025;-74
2023/06/29 11:17:52;;;;;;;2.47;1.48;;;27.30;49.90;;;;;;5073410;28;20044;-74
2023/06/29 11:20:19;;;;;;;3.55;1.58;;;27.30;50.20;;;;;;5073294;28;20024;-74
2023/06/29 11:22:45;;;;;;;6.05;1.40;;;27.30;50.80;;;;;;5073260;28;20051;-75
2023/06/29 11:25:15;;;;;;;3.20;1.45;;;27.30;51.20;;;;;;5073549;28;20476;-73
2023/06/29 11:27:42;;;;;;;2.97;1.30;;;27.40;51.40;;;;;;5073352;28;20535;-73
2023/06/29 11:30:09;;;;;;;2.90;1.38;;;27.40;50.80;;;;;;5073437;28;20078;-73
2023/06/29 11:32:36;;;;;;;4.32;1.50;;;27.50;49.90;;;;;;5073418;28;20028;-73
2023/06/29 11:35:04;;;;;;;2.15;1.23;;;27.50;48.80;;;;;;5073420;28;20052;-73
2023/06/29 11:37:30;;;;;;;2.70;1.38;;;27.50;48.30;;;;;;5072959;28;20024;-73
2023/06/29 11:39:57;;;;;;;3.28;1.45;;;27.50;48.70;;;;;;5072822;28;20021;-72
2023/06/29 11:42:24;;;;;;;2.90;1.33;;;27.50;48.40;;;;;;5071691;28;20126;-72
2023/06/29 11:45:04;;;;;;;5.10;1.40;;;27.50;48.70;;;;;;5070518;28;20107;-73
2023/06/29 11:47:30;;;;;;;2.58;1.33;;;27.60;49.80;;;;;;5070302;28;20429;-73
2023/06/29 11:50:00;;;;;;;3.33;1.10;;;27.60;49.30;;;;;;5071653;28;20021;-72
2023/06/29 11:52:32;;;;;;;9.85;1.23;;;27.60;49.50;;;;;;5072834;28;20064;-72
2023/06/29 11:55:03;;;;;;;2.35;1.45;;;27.70;49.50;;;;;;5072860;28;20361;-71
2023/06/29 11:57:33;;;;;;;2.70;1.30;;;27.70;48.60;;;;;;5072445;28;20033;-71
2023/06/29 12:00:00;;;;;;;2.58;1.23;;;27.80;48.30;;;;;;5072714;28;20051;-72
2023/06/29 12:02:26;;;;;;;1.52;1.00;;;27.70;48.60;;;;;;5072828;28;20040;-72
2023/06/29 12:04:57;;;;;;;2.80;1.50;;;27.80;48.80;;;;;;5071174;28;20035;-72
2023/06/29 12:07:41;;;;;;;4.72;1.20;;;27.80;49.50;;;;;;5072785;28;20092;-72
2023/06/29 12:10:09;;;;;;;1.40;0.98;;;27.90;48.60;;;;;;5072747;28;20074;-72
2023/06/29 12:12:41;;;;;;;1.50;1.25;;;27.90;47.70;;;;;;5073937;28;20024;-73
2023/06/29 12:15:18;;;;;;;2.22;1.05;;;27.90;47.80;;;;;;5078801;28;20025;-74
2023/06/29 12:17:45;;;;;;;3.17;1.23;;;27.90;48.20;;;;;;5079116;28;20052;-73
2023/06/29 12:20:12;;;;;;;4.38;1.10;;;28.00;47.70;;;;;;5078840;28;20020;-74
2023/06/29 12:22:38;;;;;;;4.00;1.38;;;28.00;46.70;;;;;;5078980;28;20059;-73
2023/06/29 12:25:04;;;;;;;5.13;1.25;;;28.00;47.30;;;;;;5079327;28;20017;-73
2023/06/29 12:27:30;;;;;;;4.03;1.20;;;28.10;47.90;;;;;;5078833;28;20055;-73
2023/06/29 12:29:56;;;;;;;2.10;1.30;;;28.20;47.70;;;;;;5079620;28;20027;-73
2023/06/29 12:32:22;;;;;;;1.75;1.33;;;28.20;47.20;;;;;;5079374;28;20426;-72
2023/06/29 12:34:47;;;;;;;2.72;1.60;;;28.20;47.70;;;;;;5078851;28;20016;-72
2023/06/29 12:37:13;;;;;;;4.03;1.50;;;28.30;46.80;;;;;;5079290;28;20028;-74
2023/06/29 12:39:39;;;;;;;4.32;1.38;;;28.20;47.00;;;;;;5079353;28;20024;-73
2023/06/29 12:42:06;;;;;;;2.17;1.20;;;28.30;46.80;;;;;;5078957;28;20033;-74
2023/06/29 12:44:32;;;;;;;2.80;1.33;;;28.20;46.40;;;;;;5079176;28;20024;-73
2023/06/29 12:46:58;;;;;;;3.55;1.30;;;28.30;46.80;;;;;;5079054;28;20020;-73
2023/06/29 12:49:24;;;;;;;1.92;1.15;;;28.30;46.70;;;;;;5076208;28;20025;-73
2023/06/29 12:51:49;;;;;;;3.78;1.52;;;28.20;47.10;;;;;;5076476;28;20133;-74
2023/06/29 12:54:15;;;;;;;2.05;1.25;;;28.30;46.30;;;;;;5078782;28;20020;-71
2023/06/29 12:56:41;;;;;;;3.80;1.45;;;28.30;46.80;;;;;;5079068;28;20032;-72
2023/06/29 12:59:07;;;;;;;6.00;1.45;;;28.30;47.20;;;;;;5078594;28;20016;-72
2023/06/29 13:01:32;;;;;;;2.83;1.42;;;28.30;46.70;;;;;;5078655;28;20036;-73
2023/06/29 13:03:58;;;;;;;3.85;1.58;;;28.40;47.20;;;;;;5078595;28;20082;-73
2023/06/29 13:06:24;;;;;;;5.90;1.58;;;28.40;47.50;;;;;;5078928;28;20020;-73
2023/06/29 13:08:49;;;;;;;3.75;1.45;;;28.40;48.00;;;;;;5078830;28;20071;-73
2023/06/29 13:11:15;;;;;;;2.25;1.40;;;28.50;48.10;;;;;;5077336;28;20051;-72
2023/06/29 13:13:41;;;;;;;6.43;1.48;;;28.50;48.30;;;;;;5078578;28;20126;-73
2023/06/29 13:16:07;;;;;;;6.72;1.75;;;28.50;47.40;;;;;;5078683;28;20048;-72